This is the latest recevied weather packets stored in our database for station/object KG7DQI-13. If no packets are shown the sender has not sent any weather packets the latest 10 day(s).
| Time | Temp. | Humidity | Pressure | Rain* | Wind** | Luminosity | Snow |
|---|---|---|---|---|---|---|---|
| 1788157693 | 8.89° C | 56% | 914.3 hPa | 0 mm | - | 0 W/m² | - |
| 1788155903 | 10° C | 49% | 914.4 hPa | 0 mm | - | 0 W/m² | - |
| 1788154994 | 10° C | 49% | 914.5 hPa | 0 mm | - | 0 W/m² | - |
| 1788154099 | 10.56° C | 49% | 914.6 hPa | 0 mm | - | 0 W/m² | - |
| 1788152263 | 11.67° C | 47% | 914.6 hPa | 0 mm | - | 0 W/m² | - |
| 1788151336 | 11.67° C | 39% | 914.6 hPa | 0 mm | - | 0 W/m² | - |
| 1788150417 | 12.22° C | 39% | 914.6 hPa | 0 mm | - | 0 W/m² | - |
| 1788149520 | 13.33° C | 36% | 914.4 hPa | 0 mm | - | 0 W/m² | - |
| 1788147658 | 15.56° C | 31% | 914.2 hPa | 0 mm | - | 0 W/m² | - |
| 1788146744 | 17.22° C | 30% | 914.1 hPa | 0 mm | - | 0 W/m² | - |
| 1788144851 | 20.56° C | 26% | 913.9 hPa | 0 mm | - | 0 W/m² | - |
| 1788142971 | 22.22° C | 23% | 913.8 hPa | 0 mm | - | 9 W/m² | - |
| 1788118713 | 21.11° C | 35% | 916.6 hPa | 0 mm | - | 793 W/m² | - |
| 1788117795 | 21.11° C | 36% | 916.8 hPa | 0 mm | - | 788 W/m² | - |
| 1788116851 | 20.56° C | 36% | 916.8 hPa | 0 mm | - | 779 W/m² | - |
| 1788115969 | 20° C | 37% | 917.1 hPa | 0 mm | - | 770 W/m² | - |
| 1788112346 | 16.67° C | 47% | 917.5 hPa | 0 mm | - | 578 W/m² | - |
| 1788110537 | 13.89° C | 54% | 917.8 hPa | 0 mm | - | 592 W/m² | - |
| 1788108786 | 12.22° C | 60% | 917.9 hPa | 0 mm | - | 100 W/m² | - |
| 1788106013 | 11.67° C | 62% | 918.4 hPa | 0 mm | - | 387 W/m² | - |
| 1788101526 | 3.89° C | 83% | 918.7 hPa | 0 mm | - | 195 W/m² | - |
| 1788100656 | 1.67° C | 87% | 918.6 hPa | 0 mm | - | 137 W/m² | - |
| 1788098810 | -0.56° C | 88% | 918.4 hPa | 0 mm | - | 28 W/m² | - |
| 1788096981 | -1.11° C | 86% | 918.2 hPa | 0 mm | - | 5 W/m² | - |
| 1788095191 | -0.56° C | 87% | 918.1 hPa | 0 mm | - | 0 W/m² | - |
* Rain latest hour (hover to see other rain measurements)
** Current wind speed in m/s (hover to see current wind gust speed)